Terminal Aerodrome Forecast
Issued by NWS

Home | Current Version | Previous Version | Text Only | Print | Product List | Glossary On
Versions: 1 2 3 4 5 6 7 8 9 10 11 12 13 14 15 16 17 18 19 20 21 22 23 24 25 26 27
023
FTUS42 KCAE 291455 AAA
TAFCUB
TAF AMD
KCUB 291455Z 2915/3012 35009G17KT 5SM -SHRA BR SCT010 BKN020 OVC035
      TEMPO 2915/2918 3SM SHRA BR SCT007 OVC010
     FM300300 36008KT 4SM -SHRA BR OVC012=

USA.gov is the U.S. government's official web portal to all federal, state and local government web resources and services.